KVJI/VJI METAR and TAF weather

Enter ICAO airport designator
Station Type Date Time Source
KVJI METAR 2020/02/25 11:15 UTC NOAA

KVJI 251115Z AUTO 00000KT 5SM BR SCT017 BKN026 OVC033 07/07 A2977 RMK AO2 T00720065


Station Type Date Time Source
KVJI Decoded METAR 2020/02/25 11:15 UTC NOAA

Abingdon, VA, United States (KVJI) 36-41N 082-02W
Feb 25, 2020 - 06:15 AM EST / 2020.02.25 1115 UTC
Wind: Calm:0
Visibility: 5 mile(s):0
Sky conditions: overcast
Weather: mist
Temperature: 45.0 F (7.2 C)
Dew Point: 43.7 F (6.5 C)
Relative Humidity: 95%
Pressure (altimeter): 29.77 in. Hg (1008 hPa)
ob: KVJI 251115Z AUTO 00000KT 5SM BR SCT017 BKN026 OVC033 07/07 A2977 RMK AO2 T00720065
cycle: 11

Station Type Date Time Source
KVJI TAF UTC NOAA

Error!

Example: see airport list